sensor_id;sensor_type;location;lat;lon;timestamp;pressure;altitude;pressure_sealevel;temperature;humidity
24858;BME280;12935;50.782;6.074;2023-04-04T00:01:18;100645.84;;;3.55;75.47
24858;BME280;12935;50.782;6.074;2023-04-04T00:03:43;100640.91;;;3.39;75.05
24858;BME280;12935;50.782;6.074;2023-04-04T00:06:08;100647.28;;;3.43;75.49
24858;BME280;12935;50.782;6.074;2023-04-04T00:08:34;100641.22;;;3.46;75.43
24858;BME280;12935;50.782;6.074;2023-04-04T00:10:59;100636.47;;;3.43;74.97
24858;BME280;12935;50.782;6.074;2023-04-04T00:13:25;100623.75;;;3.35;74.96
24858;BME280;12935;50.782;6.074;2023-04-04T00:15:51;100626.78;;;3.42;75.16
24858;BME280;12935;50.782;6.074;2023-04-04T00:18:16;100623.75;;;3.35;75.26
24858;BME280;12935;50.782;6.074;2023-04-04T00:20:42;100623.13;;;3.30;74.71
24858;BME280;12935;50.782;6.074;2023-04-04T00:23:07;100635.19;;;3.32;75.34
24858;BME280;12935;50.782;6.074;2023-04-04T00:25:35;100635.03;;;3.37;75.20
24858;BME280;12935;50.782;6.074;2023-04-04T00:28:01;100622.16;;;3.34;74.40
24858;BME280;12935;50.782;6.074;2023-04-04T00:30:27;100624.84;;;3.34;74.91
24858;BME280;12935;50.782;6.074;2023-04-04T00:32:52;100642.03;;;3.30;74.19
24858;BME280;12935;50.782;6.074;2023-04-04T00:35:17;100623.91;;;3.22;74.72
24858;BME280;12935;50.782;6.074;2023-04-04T00:37:42;100624.38;;;3.24;75.42
24858;BME280;12935;50.782;6.074;2023-04-04T00:40:08;100613.91;;;3.22;74.90
24858;BME280;12935;50.782;6.074;2023-04-04T00:42:33;100616.88;;;3.03;75.29
24858;BME280;12935;50.782;6.074;2023-04-04T00:44:59;100620.06;;;3.05;76.21
24858;BME280;12935;50.782;6.074;2023-04-04T00:47:29;100616.56;;;3.05;76.46
24858;BME280;12935;50.782;6.074;2023-04-04T00:49:54;100628.47;;;3.04;76.09
24858;BME280;12935;50.782;6.074;2023-04-04T00:52:20;100637.34;;;2.87;76.37
24858;BME280;12935;50.782;6.074;2023-04-04T00:54:45;100628.63;;;2.90;77.43
24858;BME280;12935;50.782;6.074;2023-04-04T00:57:11;100626.72;;;2.91;77.84
24858;BME280;12935;50.782;6.074;2023-04-04T00:59:36;100622.28;;;2.95;77.39
24858;BME280;12935;50.782;6.074;2023-04-04T01:02:02;100620.69;;;2.94;77.45
24858;BME280;12935;50.782;6.074;2023-04-04T01:04:28;100620.84;;;2.89;77.80
24858;BME280;12935;50.782;6.074;2023-04-04T01:06:55;100623.88;;;2.96;77.67
24858;BME280;12935;50.782;6.074;2023-04-04T01:09:21;100623.53;;;2.80;78.14
24858;BME280;12935;50.782;6.074;2023-04-04T01:11:47;100628.13;;;2.79;78.09
24858;BME280;12935;50.782;6.074;2023-04-04T01:14:12;100624.31;;;2.80;79.00
24858;BME280;12935;50.782;6.074;2023-04-04T01:16:38;100634.94;;;2.77;78.66
24858;BME280;12935;50.782;6.074;2023-04-04T01:19:08;100644.16;;;2.76;78.88
24858;BME280;12935;50.782;6.074;2023-04-04T01:21:36;100642.06;;;2.73;78.89
24858;BME280;12935;50.782;6.074;2023-04-04T01:24:03;100635.69;;;2.69;78.51
24858;BME280;12935;50.782;6.074;2023-04-04T01:26:29;100646.53;;;2.77;79.96
24858;BME280;12935;50.782;6.074;2023-04-04T01:28:56;100650.47;;;2.71;79.36
24858;BME280;12935;50.782;6.074;2023-04-04T01:31:39;100643.47;;;2.70;79.88
24858;BME280;12935;50.782;6.074;2023-04-04T01:37:00;100641.06;;;2.60;80.01
24858;BME280;12935;50.782;6.074;2023-04-04T01:42:29;100648.56;;;2.63;80.83
24858;BME280;12935;50.782;6.074;2023-04-04T01:44:55;100648.56;;;2.72;80.21
24858;BME280;12935;50.782;6.074;2023-04-04T01:47:22;100649.34;;;2.64;80.63
24858;BME280;12935;50.782;6.074;2023-04-04T01:49:47;100641.81;;;2.52;81.05
24858;BME280;12935;50.782;6.074;2023-04-04T01:52:13;100647.88;;;2.58;81.13
24858;BME280;12935;50.782;6.074;2023-04-04T01:54:38;100628.97;;;2.49;81.12
24858;BME280;12935;50.782;6.074;2023-04-04T01:57:03;100642.41;;;2.40;80.89
24858;BME280;12935;50.782;6.074;2023-04-04T01:59:29;100635.66;;;2.21;81.78
24858;BME280;12935;50.782;6.074;2023-04-04T02:01:54;100646.78;;;2.19;82.54
24858;BME280;12935;50.782;6.074;2023-04-04T02:04:20;100636.91;;;2.15;83.79
24858;BME280;12935;50.782;6.074;2023-04-04T02:06:46;100636.16;;;2.23;84.93
24858;BME280;12935;50.782;6.074;2023-04-04T02:09:11;100623.44;;;2.15;85.28
24858;BME280;12935;50.782;6.074;2023-04-04T02:11:36;100622.31;;;2.16;84.91
24858;BME280;12935;50.782;6.074;2023-04-04T02:14:03;100632.50;;;2.19;85.12
24858;BME280;12935;50.782;6.074;2023-04-04T02:16:29;100626.91;;;2.15;84.81
24858;BME280;12935;50.782;6.074;2023-04-04T02:18:55;100622.75;;;2.09;85.16
24858;BME280;12935;50.782;6.074;2023-04-04T02:21:20;100625.09;;;2.02;85.82
24858;BME280;12935;50.782;6.074;2023-04-04T02:23:46;100623.03;;;1.99;85.81
24858;BME280;12935;50.782;6.074;2023-04-04T02:26:11;100617.97;;;2.06;86.04
24858;BME280;12935;50.782;6.074;2023-04-04T02:28:36;100612.56;;;1.97;85.64
24858;BME280;12935;50.782;6.074;2023-04-04T02:31:02;100613.47;;;1.93;86.21
24858;BME280;12935;50.782;6.074;2023-04-04T02:33:28;100617.63;;;1.99;86.62
24858;BME280;12935;50.782;6.074;2023-04-04T02:35:57;100620.72;;;1.84;87.11
24858;BME280;12935;50.782;6.074;2023-04-04T02:38:23;100617.91;;;1.89;87.99
24858;BME280;12935;50.782;6.074;2023-04-04T02:40:48;100607.13;;;1.89;87.95
24858;BME280;12935;50.782;6.074;2023-04-04T02:43:14;100605.56;;;1.96;88.06
24858;BME280;12935;50.782;6.074;2023-04-04T02:45:39;100608.13;;;2.01;87.72
24858;BME280;12935;50.782;6.074;2023-04-04T02:48:05;100612.06;;;1.95;87.78
24858;BME280;12935;50.782;6.074;2023-04-04T02:50:31;100608.84;;;1.85;88.52
24858;BME280;12935;50.782;6.074;2023-04-04T02:53:00;100609.56;;;1.76;89.00
24858;BME280;12935;50.782;6.074;2023-04-04T02:55:26;100596.22;;;1.71;89.00
24858;BME280;12935;50.782;6.074;2023-04-04T02:57:51;100589.41;;;1.74;89.77
24858;BME280;12935;50.782;6.074;2023-04-04T03:00:17;100592.78;;;1.80;90.26
24858;BME280;12935;50.782;6.074;2023-04-04T03:02:42;100591.31;;;1.73;89.69
24858;BME280;12935;50.782;6.074;2023-04-04T03:05:08;100589.59;;;1.77;89.99
24858;BME280;12935;50.782;6.074;2023-04-04T03:07:33;100583.06;;;1.70;90.07
24858;BME280;12935;50.782;6.074;2023-04-04T03:09:58;100602.03;;;1.65;89.91
24858;BME280;12935;50.782;6.074;2023-04-04T03:12:23;100595.19;;;1.59;90.18
24858;BME280;12935;50.782;6.074;2023-04-04T03:14:49;100600.44;;;1.64;91.11
24858;BME280;12935;50.782;6.074;2023-04-04T03:17:14;100588.34;;;1.53;91.61
24858;BME280;12935;50.782;6.074;2023-04-04T03:19:39;100613.69;;;1.52;91.71
24858;BME280;12935;50.782;6.074;2023-04-04T03:22:05;100595.97;;;1.37;92.85
24858;BME280;12935;50.782;6.074;2023-04-04T03:24:30;100604.06;;;1.37;93.75
24858;BME280;12935;50.782;6.074;2023-04-04T03:26:58;100599.09;;;1.30;94.58
24858;BME280;12935;50.782;6.074;2023-04-04T03:29:24;100601.91;;;1.25;94.66
24858;BME280;12935;50.782;6.074;2023-04-04T03:31:50;100604.47;;;1.30;95.00
24858;BME280;12935;50.782;6.074;2023-04-04T03:34:15;100599.59;;;1.32;95.18
24858;BME280;12935;50.782;6.074;2023-04-04T03:36:41;100603.56;;;1.35;94.91
24858;BME280;12935;50.782;6.074;2023-04-04T03:39:06;100589.00;;;1.36;95.41
24858;BME280;12935;50.782;6.074;2023-04-04T03:41:31;100594.19;;;1.32;94.73
24858;BME280;12935;50.782;6.074;2023-04-04T03:43:56;100595.91;;;1.28;95.03
24858;BME280;12935;50.782;6.074;2023-04-04T03:46:22;100598.09;;;1.26;95.34
24858;BME280;12935;50.782;6.074;2023-04-04T03:48:48;100598.09;;;1.26;95.65
24858;BME280;12935;50.782;6.074;2023-04-04T03:51:13;100606.16;;;1.26;95.12
24858;BME280;12935;50.782;6.074;2023-04-04T03:53:38;100599.81;;;1.22;95.33
24858;BME280;12935;50.782;6.074;2023-04-04T03:56:04;100599.34;;;1.20;95.67
24858;BME280;12935;50.782;6.074;2023-04-04T03:58:29;100600.13;;;1.21;96.21
24858;BME280;12935;50.782;6.074;2023-04-04T04:00:55;100607.09;;;1.22;96.23
24858;BME280;12935;50.782;6.074;2023-04-04T04:03:20;100605.13;;;1.14;96.48
24858;BME280;12935;50.782;6.074;2023-04-04T04:05:46;100608.31;;;1.16;96.96
24858;BME280;12935;50.782;6.074;2023-04-04T04:08:11;100594.00;;;1.07;97.02
24858;BME280;12935;50.782;6.074;2023-04-04T04:10:37;100605.63;;;1.16;97.64
24858;BME280;12935;50.782;6.074;2023-04-04T04:13:02;100613.22;;;1.00;98.09
24858;BME280;12935;50.782;6.074;2023-04-04T04:15:27;100605.47;;;0.85;100.00
24858;BME280;12935;50.782;6.074;2023-04-04T04:17:52;100599.59;;;0.83;99.85
24858;BME280;12935;50.782;6.074;2023-04-04T04:20:18;100588.97;;;0.78;99.77
24858;BME280;12935;50.782;6.074;2023-04-04T04:22:46;100603.19;;;0.92;99.73
24858;BME280;12935;50.782;6.074;2023-04-04T04:25:12;100600.31;;;0.88;98.97
24858;BME280;12935;50.782;6.074;2023-04-04T04:27:37;100597.81;;;0.92;99.42
24858;BME280;12935;50.782;6.074;2023-04-04T04:30:03;100604.16;;;0.96;98.97
24858;BME280;12935;50.782;6.074;2023-04-04T04:32:28;100580.19;;;0.86;99.50
24858;BME280;12935;50.782;6.074;2023-04-04T04:34:54;100584.84;;;0.94;99.35
24858;BME280;12935;50.782;6.074;2023-04-04T04:37:19;100583.56;;;0.91;99.64
24858;BME280;12935;50.782;6.074;2023-04-04T04:39:44;100579.56;;;0.89;99.74
24858;BME280;12935;50.782;6.074;2023-04-04T04:42:10;100597.38;;;0.98;99.62
24858;BME280;12935;50.782;6.074;2023-04-04T04:44:35;100595.78;;;0.97;99.40
24858;BME280;12935;50.782;6.074;2023-04-04T04:47:02;100581.97;;;0.90;98.99
24858;BME280;12935;50.782;6.074;2023-04-04T04:49:27;100590.53;;;0.92;99.06
24858;BME280;12935;50.782;6.074;2023-04-04T04:51:52;100586.84;;;0.88;99.41
24858;BME280;12935;50.782;6.074;2023-04-04T04:54:18;100574.00;;;0.85;99.47
24858;BME280;12935;50.782;6.074;2023-04-04T04:56:43;100590.44;;;0.84;99.63
24858;BME280;12935;50.782;6.074;2023-04-04T04:59:08;100587.84;;;0.92;100.00
24858;BME280;12935;50.782;6.074;2023-04-04T05:01:35;100578.78;;;0.88;100.00
24858;BME280;12935;50.782;6.074;2023-04-04T05:04:00;100590.31;;;1.02;99.96
24858;BME280;12935;50.782;6.074;2023-04-04T05:06:26;100595.00;;;0.97;98.83
24858;BME280;12935;50.782;6.074;2023-04-04T05:08:51;100586.94;;;0.83;99.05
24858;BME280;12935;50.782;6.074;2023-04-04T05:11:16;100612.16;;;0.87;99.18
24858;BME280;12935;50.782;6.074;2023-04-04T05:13:42;100601.53;;;0.55;100.00
24858;BME280;12935;50.782;6.074;2023-04-04T05:16:07;100625.03;;;0.77;100.00
24858;BME280;12935;50.782;6.074;2023-04-04T05:18:32;100624.75;;;0.78;100.00
24858;BME280;12935;50.782;6.074;2023-04-04T05:20:58;100604.91;;;0.74;100.00
24858;BME280;12935;50.782;6.074;2023-04-04T05:23:23;100609.28;;;0.84;100.00
24858;BME280;12935;50.782;6.074;2023-04-04T05:25:49;100613.16;;;0.91;100.00
24858;BME280;12935;50.782;6.074;2023-04-04T05:28:21;100608.16;;;0.98;100.00
24858;BME280;12935;50.782;6.074;2023-04-04T05:30:47;100620.13;;;0.92;100.00
24858;BME280;12935;50.782;6.074;2023-04-04T05:33:13;100619.44;;;0.87;100.00
24858;BME280;12935;50.782;6.074;2023-04-04T05:35:38;100632.78;;;0.92;100.00
24858;BME280;12935;50.782;6.074;2023-04-04T05:38:05;100620.13;;;0.92;100.00
24858;BME280;12935;50.782;6.074;2023-04-04T05:40:30;100618.44;;;0.83;100.00
24858;BME280;12935;50.782;6.074;2023-04-04T05:42:56;100636.56;;;0.91;100.00
24858;BME280;12935;50.782;6.074;2023-04-04T05:45:22;100622.63;;;0.89;100.00
24858;BME280;12935;50.782;6.074;2023-04-04T05:47:47;100624.28;;;0.98;100.00
24858;BME280;12935;50.782;6.074;2023-04-04T05:50:12;100619.44;;;0.87;100.00
24858;BME280;12935;50.782;6.074;2023-04-04T05:52:38;100626.91;;;0.90;100.00
24858;BME280;12935;50.782;6.074;2023-04-04T05:55:03;100626.28;;;1.07;100.00
24858;BME280;12935;50.782;6.074;2023-04-04T05:57:29;100626.47;;;1.10;100.00
24858;BME280;12935;50.782;6.074;2023-04-04T05:59:54;100627.75;;;1.13;100.00
24858;BME280;12935;50.782;6.074;2023-04-04T06:02:19;100624.84;;;1.23;100.00
24858;BME280;12935;50.782;6.074;2023-04-04T06:04:45;100632.16;;;1.45;100.00
24858;BME280;12935;50.782;6.074;2023-04-04T06:07:10;100639.72;;;1.56;100.00
24858;BME280;12935;50.782;6.074;2023-04-04T06:09:36;100633.16;;;1.71;98.98
24858;BME280;12935;50.782;6.074;2023-04-04T06:12:01;100634.97;;;1.84;97.97
24858;BME280;12935;50.782;6.074;2023-04-04T06:14:29;100638.72;;;1.74;96.97
24858;BME280;12935;50.782;6.074;2023-04-04T06:16:55;100645.34;;;1.68;98.08
24858;BME280;12935;50.782;6.074;2023-04-04T06:19:20;100635.78;;;1.85;98.00
24858;BME280;12935;50.782;6.074;2023-04-04T06:21:46;100641.78;;;2.04;96.31
24858;BME280;12935;50.782;6.074;2023-04-04T06:24:11;100641.03;;;2.21;94.93
24858;BME280;12935;50.782;6.074;2023-04-04T06:26:36;100643.69;;;2.34;93.64
24858;BME280;12935;50.782;6.074;2023-04-04T06:29:01;100632.22;;;2.29;92.75
24858;BME280;12935;50.782;6.074;2023-04-04T06:31:27;100650.13;;;2.25;92.52
24858;BME280;12935;50.782;6.074;2023-04-04T06:33:52;100656.59;;;2.24;92.70
24858;BME280;12935;50.782;6.074;2023-04-04T06:36:18;100648.59;;;2.10;91.63
24858;BME280;12935;50.782;6.074;2023-04-04T06:38:43;100645.19;;;2.18;92.76
24858;BME280;12935;50.782;6.074;2023-04-04T06:41:08;100658.16;;;2.47;91.99
24858;BME280;12935;50.782;6.074;2023-04-04T06:43:33;100638.50;;;2.55;89.70
24858;BME280;12935;50.782;6.074;2023-04-04T06:45:59;100656.84;;;2.75;87.96
24858;BME280;12935;50.782;6.074;2023-04-04T06:48:24;100655.44;;;2.87;87.02
24858;BME280;12935;50.782;6.074;2023-04-04T06:50:50;100651.44;;;2.67;85.41
24858;BME280;12935;50.782;6.074;2023-04-04T06:53:15;100660.38;;;2.45;84.43
24858;BME280;12935;50.782;6.074;2023-04-04T06:55:41;100659.66;;;2.62;85.65
24858;BME280;12935;50.782;6.074;2023-04-04T06:58:06;100668.00;;;2.83;84.90
24858;BME280;12935;50.782;6.074;2023-04-04T07:00:31;100664.94;;;2.75;84.46
24858;BME280;12935;50.782;6.074;2023-04-04T07:03:00;100673.63;;;2.64;84.28
24858;BME280;12935;50.782;6.074;2023-04-04T07:05:26;100663.03;;;2.85;85.36
24858;BME280;12935;50.782;6.074;2023-04-04T07:07:52;100681.84;;;3.07;83.92
24858;BME280;12935;50.782;6.074;2023-04-04T07:10:21;100676.94;;;3.17;81.44
24858;BME280;12935;50.782;6.074;2023-04-04T07:12:46;100680.34;;;3.40;80.68
24858;BME280;12935;50.782;6.074;2023-04-04T07:15:12;100688.28;;;3.54;77.42
24858;BME280;12935;50.782;6.074;2023-04-04T07:17:37;100678.13;;;3.60;77.21
24858;BME280;12935;50.782;6.074;2023-04-04T07:20:04;100689.41;;;3.53;75.75
24858;BME280;12935;50.782;6.074;2023-04-04T07:22:30;100688.94;;;3.60;76.50
24858;BME280;12935;50.782;6.074;2023-04-04T07:24:55;100676.03;;;3.65;74.26
24858;BME280;12935;50.782;6.074;2023-04-04T07:27:21;100678.44;;;3.67;74.15
24858;BME280;12935;50.782;6.074;2023-04-04T07:29:46;100675.25;;;3.73;73.46
24858;BME280;12935;50.782;6.074;2023-04-04T07:32:11;100671.28;;;3.71;73.98
24858;BME280;12935;50.782;6.074;2023-04-04T07:34:36;100666.66;;;3.88;74.38
24858;BME280;12935;50.782;6.074;2023-04-04T07:37:02;100673.00;;;4.01;73.56
24858;BME280;12935;50.782;6.074;2023-04-04T07:39:27;100673.59;;;4.15;74.10
24858;BME280;12935;50.782;6.074;2023-04-04T07:41:53;100671.84;;;4.19;72.47
24858;BME280;12935;50.782;6.074;2023-04-04T07:44:18;100666.31;;;4.07;72.89
24858;BME280;12935;50.782;6.074;2023-04-04T07:46:43;100666.44;;;4.19;72.43
24858;BME280;12935;50.782;6.074;2023-04-04T07:49:08;100660.88;;;4.25;73.33
24858;BME280;12935;50.782;6.074;2023-04-04T07:51:34;100664.44;;;4.46;71.87
24858;BME280;12935;50.782;6.074;2023-04-04T07:54:00;100668.22;;;4.62;69.29
24858;BME280;12935;50.782;6.074;2023-04-04T07:56:26;100668.31;;;4.74;67.26
24858;BME280;12935;50.782;6.074;2023-04-04T07:58:51;100660.63;;;4.85;66.10
24858;BME280;12935;50.782;6.074;2023-04-04T08:01:16;100661.19;;;4.99;65.32
24858;BME280;12935;50.782;6.074;2023-04-04T08:03:42;100659.22;;;5.08;64.99
24858;BME280;12935;50.782;6.074;2023-04-04T08:06:07;100648.38;;;5.08;64.04
24858;BME280;12935;50.782;6.074;2023-04-04T08:08:32;100647.91;;;5.06;64.83
24858;BME280;12935;50.782;6.074;2023-04-04T08:10:57;100646.63;;;5.04;62.62
24858;BME280;12935;50.782;6.074;2023-04-04T08:13:23;100659.81;;;5.14;62.03
24858;BME280;12935;50.782;6.074;2023-04-04T08:15:48;100658.50;;;4.90;60.71
24858;BME280;12935;50.782;6.074;2023-04-04T08:18:14;100664.91;;;5.15;60.16
24858;BME280;12935;50.782;6.074;2023-04-04T08:20:39;100662.09;;;5.33;60.65
24858;BME280;12935;50.782;6.074;2023-04-04T08:23:04;100676.00;;;5.22;59.66
24858;BME280;12935;50.782;6.074;2023-04-04T08:25:30;100669.69;;;5.39;59.00
24858;BME280;12935;50.782;6.074;2023-04-04T08:27:55;100673.38;;;5.55;58.14
24858;BME280;12935;50.782;6.074;2023-04-04T08:30:21;100669.94;;;5.67;57.48
24858;BME280;12935;50.782;6.074;2023-04-04T08:32:46;100664.69;;;5.83;56.83
24858;BME280;12935;50.782;6.074;2023-04-04T08:35:13;100656.19;;;5.72;56.36
24858;BME280;12935;50.782;6.074;2023-04-04T08:37:43;100651.88;;;5.71;56.68
24858;BME280;12935;50.782;6.074;2023-04-04T08:40:09;100663.06;;;5.90;56.52
24858;BME280;12935;50.782;6.074;2023-04-04T08:42:34;100659.06;;;6.09;55.39
24858;BME280;12935;50.782;6.074;2023-04-04T08:45:02;100660.88;;;6.17;54.77
24858;BME280;12935;50.782;6.074;2023-04-04T08:47:30;100660.47;;;6.27;54.47
24858;BME280;12935;50.782;6.074;2023-04-04T08:49:58;100666.44;;;6.20;54.86
24858;BME280;12935;50.782;6.074;2023-04-04T08:52:25;100658.44;;;6.36;54.70
24858;BME280;12935;50.782;6.074;2023-04-04T08:54:52;100651.59;;;5.85;54.43
24858;BME280;12935;50.782;6.074;2023-04-04T08:57:17;100649.53;;;6.03;55.65
24858;BME280;12935;50.782;6.074;2023-04-04T08:59:43;100661.47;;;6.22;53.99
24858;BME280;12935;50.782;6.074;2023-04-04T09:04:34;100657.59;;;6.56;52.08
24858;BME280;12935;50.782;6.074;2023-04-04T09:07:00;100657.94;;;6.67;52.27
24858;BME280;12935;50.782;6.074;2023-04-04T09:09:28;100656.78;;;6.80;52.42
24858;BME280;12935;50.782;6.074;2023-04-04T09:11:54;100665.31;;;6.91;52.77
24858;BME280;12935;50.782;6.074;2023-04-04T09:14:19;100669.13;;;7.02;51.79
24858;BME280;12935;50.782;6.074;2023-04-04T09:16:45;100664.50;;;6.90;52.38
24858;BME280;12935;50.782;6.074;2023-04-04T09:19:11;100654.63;;;7.10;52.18
24858;BME280;12935;50.782;6.074;2023-04-04T09:21:36;100656.44;;;6.94;51.24
24858;BME280;12935;50.782;6.074;2023-04-04T09:24:02;100666.28;;;7.23;51.06
24858;BME280;12935;50.782;6.074;2023-04-04T09:26:27;100666.06;;;7.16;52.64
24858;BME280;12935;50.782;6.074;2023-04-04T09:28:52;100664.97;;;7.45;51.10
24858;BME280;12935;50.782;6.074;2023-04-04T09:31:18;100656.22;;;7.63;50.57
24858;BME280;12935;50.782;6.074;2023-04-04T09:33:43;100656.00;;;7.56;49.80
24858;BME280;12935;50.782;6.074;2023-04-04T09:36:10;100655.56;;;7.82;49.68
24858;BME280;12935;50.782;6.074;2023-04-04T09:38:38;100655.44;;;8.06;48.88
24858;BME280;12935;50.782;6.074;2023-04-04T09:41:07;100656.34;;;8.10;49.69
24858;BME280;12935;50.782;6.074;2023-04-04T09:43:35;100653.16;;;8.36;49.33
24858;BME280;12935;50.782;6.074;2023-04-04T09:46:02;100651.31;;;8.40;48.53
24858;BME280;12935;50.782;6.074;2023-04-04T09:48:32;100649.22;;;8.65;47.59
24858;BME280;12935;50.782;6.074;2023-04-04T09:50:58;100650.50;;;8.87;47.51
24858;BME280;12935;50.782;6.074;2023-04-04T09:53:24;100648.81;;;8.98;48.33
24858;BME280;12935;50.782;6.074;2023-04-04T09:55:51;100659.34;;;8.81;46.33
24858;BME280;12935;50.782;6.074;2023-04-04T09:58:18;100651.84;;;8.77;47.43
24858;BME280;12935;50.782;6.074;2023-04-04T10:00:48;100653.19;;;9.19;47.34
24858;BME280;12935;50.782;6.074;2023-04-04T10:03:14;100644.28;;;9.57;46.51
24858;BME280;12935;50.782;6.074;2023-04-04T10:05:40;100650.38;;;9.89;45.67
24858;BME280;12935;50.782;6.074;2023-04-04T10:08:20;100649.63;;;9.92;45.06
24858;BME280;12935;50.782;6.074;2023-04-04T10:10:47;100646.84;;;9.88;43.92
24858;BME280;12935;50.782;6.074;2023-04-04T10:13:13;100645.59;;;9.28;44.10
24858;BME280;12935;50.782;6.074;2023-04-04T10:15:42;100646.78;;;9.65;46.02
24858;BME280;12935;50.782;6.074;2023-04-04T10:18:08;100647.53;;;10.46;44.71
24858;BME280;12935;50.782;6.074;2023-04-04T10:20:34;100658.28;;;11.08;44.33
24858;BME280;12935;50.782;6.074;2023-04-04T10:23:00;100629.09;;;11.45;42.69
24858;BME280;12935;50.782;6.074;2023-04-04T10:25:26;100644.66;;;11.71;41.79
24858;BME280;12935;50.782;6.074;2023-04-04T10:27:51;100636.75;;;11.33;41.66
24858;BME280;12935;50.782;6.074;2023-04-04T10:30:17;100637.88;;;11.02;41.59
24858;BME280;12935;50.782;6.074;2023-04-04T10:32:49;100638.38;;;11.37;43.51
24858;BME280;12935;50.782;6.074;2023-04-04T10:35:20;100626.72;;;11.74;42.52
24858;BME280;12935;50.782;6.074;2023-04-04T10:37:52;100630.97;;;12.42;41.10
24858;BME280;12935;50.782;6.074;2023-04-04T10:40:20;100631.47;;;12.54;40.62
24858;BME280;12935;50.782;6.074;2023-04-04T10:42:48;100629.53;;;11.81;40.36
24858;BME280;12935;50.782;6.074;2023-04-04T10:45:15;100622.78;;;12.49;40.10
24858;BME280;12935;50.782;6.074;2023-04-04T10:47:43;100616.84;;;12.94;39.57
24858;BME280;12935;50.782;6.074;2023-04-04T10:50:09;100618.31;;;13.40;39.28
24858;BME280;12935;50.782;6.074;2023-04-04T10:52:37;100614.88;;;13.60;36.52
24858;BME280;12935;50.782;6.074;2023-04-04T10:55:05;100621.59;;;13.74;36.79
24858;BME280;12935;50.782;6.074;2023-04-04T10:57:33;100619.31;;;13.97;35.43
24858;BME280;12935;50.782;6.074;2023-04-04T11:00:09;100613.97;;;13.31;36.96
24858;BME280;12935;50.782;6.074;2023-04-04T11:05:35;100607.56;;;14.18;35.54
24858;BME280;12935;50.782;6.074;2023-04-04T11:08:18;100602.44;;;13.95;34.58
24858;BME280;12935;50.782;6.074;2023-04-04T11:10:49;100597.78;;;14.49;34.47
24858;BME280;12935;50.782;6.074;2023-04-04T11:13:19;100593.09;;;14.56;34.49
24858;BME280;12935;50.782;6.074;2023-04-04T11:18:44;100590.28;;;14.24;35.96
24858;BME280;12935;50.782;6.074;2023-04-04T11:21:17;100591.06;;;14.89;33.44
24858;BME280;12935;50.782;6.074;2023-04-04T11:26:12;100591.72;;;15.39;32.48
24858;BME280;12935;50.782;6.074;2023-04-04T11:34:07;100585.34;;;15.67;31.66
24858;BME280;12935;50.782;6.074;2023-04-04T11:39:25;100579.81;;;16.29;29.26
24858;BME280;12935;50.782;6.074;2023-04-04T11:44:25;100582.06;;;16.86;30.17
24858;BME280;12935;50.782;6.074;2023-04-04T11:47:08;100573.06;;;16.82;28.91
24858;BME280;12935;50.782;6.074;2023-04-04T11:49:36;100569.53;;;16.33;30.65
24858;BME280;12935;50.782;6.074;2023-04-04T11:52:07;100591.25;;;15.62;31.97
24858;BME280;12935;50.782;6.074;2023-04-04T11:54:33;100572.16;;;15.96;31.43
24858;BME280;12935;50.782;6.074;2023-04-04T11:56:59;100572.16;;;15.99;29.83
24858;BME280;12935;50.782;6.074;2023-04-04T11:59:25;100569.97;;;16.28;30.96
24858;BME280;12935;50.782;6.074;2023-04-04T12:01:52;100565.72;;;17.02;29.35
24858;BME280;12935;50.782;6.074;2023-04-04T12:04:19;100576.22;;;16.80;29.44
24858;BME280;12935;50.782;6.074;2023-04-04T12:06:48;100546.31;;;16.31;29.44
24858;BME280;12935;50.782;6.074;2023-04-04T12:09:17;100546.56;;;15.19;31.08
24858;BME280;12935;50.782;6.074;2023-04-04T12:11:47;100560.53;;;16.22;29.61
24858;BME280;12935;50.782;6.074;2023-04-04T12:14:21;100554.91;;;15.88;29.00
24858;BME280;12935;50.782;6.074;2023-04-04T12:16:48;100545.53;;;16.75;29.84
24858;BME280;12935;50.782;6.074;2023-04-04T12:19:15;100542.25;;;17.51;29.16
24858;BME280;12935;50.782;6.074;2023-04-04T12:21:41;100544.25;;;15.10;30.31
24858;BME280;12935;50.782;6.074;2023-04-04T12:24:07;100545.25;;;16.14;31.12
24858;BME280;12935;50.782;6.074;2023-04-04T12:26:35;100540.97;;;17.29;29.11
24858;BME280;12935;50.782;6.074;2023-04-04T12:29:01;100540.91;;;17.94;27.38
24858;BME280;12935;50.782;6.074;2023-04-04T12:31:27;100535.28;;;18.24;27.17
24858;BME280;12935;50.782;6.074;2023-04-04T12:33:53;100546.91;;;18.12;27.30
24858;BME280;12935;50.782;6.074;2023-04-04T12:36:19;100533.41;;;18.41;27.26
24858;BME280;12935;50.782;6.074;2023-04-04T12:38:59;100524.88;;;18.55;27.39
24858;BME280;12935;50.782;6.074;2023-04-04T12:41:25;100521.81;;;17.45;27.86
24858;BME280;12935;50.782;6.074;2023-04-04T12:43:58;100520.25;;;17.75;28.39
24858;BME280;12935;50.782;6.074;2023-04-04T12:46:27;100530.19;;;17.96;27.98
24858;BME280;12935;50.782;6.074;2023-04-04T12:48:53;100520.31;;;18.68;26.72
24858;BME280;12935;50.782;6.074;2023-04-04T12:51:19;100521.16;;;19.05;25.65
24858;BME280;12935;50.782;6.074;2023-04-04T12:53:51;100519.66;;;17.87;25.71
24858;BME280;12935;50.782;6.074;2023-04-04T12:56:24;100517.03;;;16.40;28.89
24858;BME280;12935;50.782;6.074;2023-04-04T12:58:50;100519.28;;;16.08;27.00
24858;BME280;12935;50.782;6.074;2023-04-04T13:01:16;100514.38;;;16.74;28.44
24858;BME280;12935;50.782;6.074;2023-04-04T13:03:42;100513.56;;;17.11;28.50
24858;BME280;12935;50.782;6.074;2023-04-04T13:06:16;100516.06;;;16.65;27.40
24858;BME280;12935;50.782;6.074;2023-04-04T13:08:52;100509.97;;;17.75;28.07
24858;BME280;12935;50.782;6.074;2023-04-04T13:11:17;100499.28;;;18.90;26.90
24858;BME280;12935;50.782;6.074;2023-04-04T13:13:43;100502.72;;;20.96;24.56
24858;BME280;12935;50.782;6.074;2023-04-04T13:16:13;100501.56;;;24.26;21.18
24858;BME280;12935;50.782;6.074;2023-04-04T13:18:42;100503.47;;;27.06;18.95
24858;BME280;12935;50.782;6.074;2023-04-04T13:21:10;100493.28;;;29.09;17.02